Asheville, North Carolina
Current Conditions -  °F | °C
As of 8:54 AM on Thursday 30 Oct 2014 (Local Time) from KAVL Reporting Station
Clear Clear  
Wind Chill: 38°   Ceiling: Unl
Heat Index: 42°   Visibility: 10mi
Dew Point: 36°   Wind: 7mph
Humidity: 79%   Direction: 340°NNW
Pressure: 30.1"   Gusts: NA
Location:  35.6°N, 82.55°W
Report Text: KAVL 301254Z 34006KT 10SM CLR 06/02 A3010 RMK AO2 SLP190 T00560022
Loading
Personal Weather Stations






























Interactive Weather Map
Tropical Storm Tracking
New forecast layout! Learn more

10-Day Weather Forecast

Advertisements
Track Severe Weather on mobile